Flight Track Log - Related Links

Times and Time Zones

All times are in EDT time to prevent confusion due to time zone crossing. See the N664HW flight status page for this flight to view local times or setup timezone preferences in your user account.

Time Position Orientation Groundspeed Altitude Reporting Facility
EDT Latitude Longitude Course Direction KTS MPH feet Rate Location/Type
Sun 04:15:00 PM 33.2941 -81.7361 112° Southeast  Level Estimated
Sun 04:16:00 PM 33.2789 -81.6905 112° Southeast  Level Estimated
Sun 04:16:40 PM 33.2878 -81.6700 112° Southeast 137 158 3,100  Level Jacksonville Center
Sun 04:17:00 PM 33.2630 -81.6452 113° Southeast  Level FlightAware Approximate
Sun 04:17:40 PM 33.2728 -81.6256 112° Southeast 144 166 3,100  Level Jacksonville Center
Sun 04:18:00 PM 33.2464 -81.5980 113° Southeast  Level FlightAware Approximate
Sun 04:18:40 PM 33.2578 -81.5858 114° Southeast 144 166 3,100  Level Jacksonville Center
Sun 04:19:00 PM 33.2297 -81.5508 113° Southeast  Level FlightAware Approximate
Sun 04:19:40 PM 33.2428 -81.5464 114° Southeast 144 166 3,100  Level Jacksonville Center
Sun 04:20:00 PM 33.2131 -81.5036 113° Southeast  Level FlightAware Approximate
Sun 04:20:40 PM 33.2297 -81.5019 109° East 134 154 3,100  Level Jacksonville Center
Sun 04:21:00 PM 33.1966 -81.4564 112° Southeast  Level FlightAware Approximate
Sun 04:21:40 PM 33.2147 -81.4600 113° Southeast 134 154 3,100  Level Jacksonville Center
Sun 04:22:00 PM 33.1808 -81.4088 112° Southeast  Level FlightAware Approximate
Sun 04:22:40 PM 33.2017 -81.4181 110° East 129 148 3,100  Level Jacksonville Center
Sun 04:23:40 PM 33.1867 -81.3761 113° Southeast 129 148 3,100  Level Jacksonville Center
Sun 04:24:40 PM 33.1714 -81.3367 115° Southeast 129 148 3,100  Level Jacksonville Center
Sun 04:25:40 PM 33.1542 -81.2922 115° Southeast 129 148 3,100  Level Jacksonville Center
Sun 04:26:40 PM 33.1369 -81.2528 118° Southeast 134 154 3,100  Level Jacksonville Center
Sun 04:27:40 PM 33.1178 -81.2111 119° Southeast 134 154 3,100  Level Jacksonville Center
Sun 04:28:40 PM 33.1025 -81.1692 113° Southeast 139 160 3,100  Level Jacksonville Center
Sun 04:29:40 PM 33.0853 -81.1272 116° Southeast 139 160 3,100  Level Jacksonville Center
Sun 04:30:40 PM 33.0700 -81.0906 116° Southeast 139 160 3,100  Level Jacksonville Center
Sun 04:31:40 PM 33.0528 -81.0486 116° Southeast 139 160 3,100  Level Jacksonville Center
Sun 04:32:40 PM 33.0375 -81.0069 114° Southeast 139 160 3,100  Level Jacksonville Center
Sun 04:33:40 PM 33.0181 -80.9653 119° Southeast 139 160 3,100  Level Jacksonville Center
Sun 04:34:40 PM 33.0008 -80.9233 116° Southeast 139 160 3,100 50 Level Jacksonville Center
Sun 04:35:40 PM 32.9836 -80.8842 118° Southeast 139 160 3,200  Climbing Jacksonville Center
Sun 04:36:40 PM 32.9661 -80.8425 117° Southeast 139 160 3,100 -100 Descending Jacksonville Center
Sun 04:37:40 PM 32.9486 -80.7983 115° Southeast 139 160 3,000 -50 Descending Jacksonville Center
Sun 04:38:40 PM 32.9292 -80.7567 119° Southeast 139 160 3,000  Level Jacksonville Center
Sun 04:39:40 PM 32.9139 -80.7150 114° Southeast 139 160 3,000 50 Level Jacksonville Center
Sun 04:40:40 PM 32.8967 -80.6758 118° Southeast 139 160 3,100 50 Climbing Jacksonville Center
Sun 04:41:40 PM 32.8792 -80.6342 117° Southeast 139 160 3,100  Level Jacksonville Center
Sun 04:42:40 PM 32.8639 -80.5925 114° Southeast 139 160 3,100 -200 Level Jacksonville Center
Sun 04:43:40 PM 32.8442 -80.5486 118° Southeast 139 160 2,700 -350 Descending Jacksonville Center
Sun 04:44:40 PM 32.8244 -80.5047 118° Southeast 139 160 2,400 -300 Descending Jacksonville Center
Sun 04:46:00 PM 32.8141 -80.4499 103° East  Level FlightAware Approximate
Sun 04:53:00 PM 32.7502 -80.1615 117° Southeast  Level FlightAware Approximate
Sun 04:54:00 PM 32.7341 -80.1240 117° Southeast  Level FlightAware Approximate
Sun 04:55:00 PM 32.7180 -80.0865 117° Southeast  Level FlightAware Approximate

Login

Don't have an account? Register now (free) for customized features, flight alerts, and more!